Time;durP1;ratioP1;P1;durP2;ratioP2;P2;SDS_P1;SDS_P2;PMS_P1;PMS_P2;Temp;Humidity;BMP_temperature;BMP_pressure;BME280_temperature;BME280_humidity;BME280_pressure;Samples;Min_cycle;Max_cycle;Signal;HPM_P1;HPM_P2
2022/03/08 00:01:28;;;;;;;57.25;35.88;;;;;;;22.58;44.37;102308.84;5085193;28;20020;-61
2022/03/08 00:03:53;;;;;;;52.35;34.45;;;;;;;22.60;44.56;102312.28;5083210;28;20078;-61
2022/03/08 00:06:18;;;;;;;56.63;36.45;;;;;;;22.60;44.02;102306.78;5086848;28;20032;-61
2022/03/08 00:08:44;;;;;;;53.85;34.53;;;;;;;22.75;43.94;102305.16;5086848;28;20032;-61
2022/03/08 00:11:10;;;;;;;56.95;36.65;;;;;;;23.07;46.11;102307.16;5085888;28;20040;-62
2022/03/08 00:13:35;;;;;;;53.63;35.42;;;;;;;23.26;47.70;102306.00;5082964;28;20028;-61
2022/03/08 00:16:01;;;;;;;61.70;38.45;;;;;;;23.36;49.78;102312.22;5083565;28;20058;-62
2022/03/08 00:18:26;;;;;;;57.10;35.58;;;;;;;23.41;50.91;102309.81;5082420;28;20031;-61
2022/03/08 00:20:51;;;;;;;58.95;38.08;;;;;;;23.44;51.85;102301.22;5080441;28;20055;-62
2022/03/08 00:23:17;;;;;;;61.47;37.58;;;;;;;23.52;53.15;102309.50;5081920;28;20020;-62
2022/03/08 00:25:42;;;;;;;59.35;37.70;;;;;;;23.56;54.10;102305.38;5082109;28;20024;-62
2022/03/08 00:28:08;;;;;;;62.13;39.38;;;;;;;23.62;55.13;102309.34;5077756;28;20274;-62
2022/03/08 00:30:35;;;;;;;60.65;37.22;;;;;;;23.64;55.01;102310.88;5080713;28;20041;-61
2022/03/08 00:33:00;;;;;;;61.85;38.17;;;;;;;23.70;56.10;102309.34;5083202;28;20025;-61
2022/03/08 00:35:26;;;;;;;62.85;38.33;;;;;;;23.68;56.19;102304.03;5084406;28;20043;-61
2022/03/08 00:37:53;;;;;;;59.38;38.65;;;;;;;23.74;56.72;102312.59;5082169;28;20016;-61
2022/03/08 00:40:21;;;;;;;60.97;39.30;;;;;;;23.75;57.61;102309.69;5081705;28;20042;-61
2022/03/08 00:42:47;;;;;;;62.15;40.53;;;;;;;23.78;58.04;102303.84;5076141;28;20028;-61
2022/03/08 00:45:13;;;;;;;62.47;39.20;;;;;;;23.82;58.65;102307.09;5079794;28;20016;-61
2022/03/08 00:47:40;;;;;;;62.60;38.50;;;;;;;23.86;58.42;102300.25;5081582;28;20059;-62
2022/03/08 00:50:08;;;;;;;62.33;38.80;;;;;;;23.87;58.65;102302.81;5079019;28;20028;-62
2022/03/08 00:52:34;;;;;;;59.78;38.78;;;;;;;23.88;58.59;102304.53;5074681;28;20063;-61
2022/03/08 00:54:59;;;;;;;60.92;38.10;;;;;;;23.90;58.58;102301.59;5076504;28;20104;-61
2022/03/08 00:57:25;;;;;;;57.58;36.55;;;;;;;23.91;59.19;102300.56;5078988;28;20540;-61
2022/03/08 00:59:50;;;;;;;64.47;39.80;;;;;;;23.94;58.98;102292.84;5077033;28;20033;-61
2022/03/08 01:02:15;;;;;;;64.38;39.17;;;;;;;23.97;59.13;102299.88;5082402;28;20028;-62
2022/03/08 01:04:40;;;;;;;62.97;37.83;;;;;;;24.01;58.48;102298.47;5082682;28;20540;-61
2022/03/08 01:07:07;;;;;;;63.58;38.80;;;;;;;24.01;58.89;102306.72;5076815;28;20032;-61
2022/03/08 01:09:33;;;;;;;63.13;39.10;;;;;;;24.03;58.55;102307.44;5079652;28;20105;-61
2022/03/08 01:11:58;;;;;;;60.05;38.63;;;;;;;24.05;58.92;102310.00;5082981;28;20052;-61
2022/03/08 01:14:23;;;;;;;58.83;36.88;;;;;;;24.09;58.54;102316.84;5082207;28;20036;-62
2022/03/08 01:16:49;;;;;;;56.60;37.88;;;;;;;24.09;58.38;102320.47;5079629;28;20455;-61
2022/03/08 01:19:14;;;;;;;59.28;39.35;;;;;;;24.11;58.12;102328.53;5079418;28;20066;-62
2022/03/08 01:21:39;;;;;;;59.45;38.38;;;;;;;24.13;57.78;102324.56;5080376;28;20032;-61
2022/03/08 01:24:05;;;;;;;59.95;38.60;;;;;;;24.14;57.71;102320.78;5082019;28;20113;-61
2022/03/08 01:26:31;;;;;;;55.67;36.92;;;;;;;24.19;57.21;102323.03;5079885;28;20032;-61
2022/03/08 01:28:57;;;;;;;54.83;37.90;;;;;;;24.21;57.08;102324.56;5079230;28;20020;-61
2022/03/08 01:31:23;;;;;;;53.97;36.28;;;;;;;24.21;56.93;102319.06;5079671;28;20395;-61
2022/03/08 01:33:49;;;;;;;56.80;38.35;;;;;;;24.24;57.48;102321.47;5079133;28;20032;-62
2022/03/08 01:36:15;;;;;;;59.10;37.95;;;;;;;24.23;56.90;102317.00;5080231;28;20020;-62
2022/03/08 01:38:40;;;;;;;59.60;37.40;;;;;;;24.24;56.76;102321.47;5078546;28;20031;-61
2022/03/08 01:41:06;;;;;;;58.33;37.80;;;;;;;24.26;56.48;102324.91;5078164;28;20051;-61
2022/03/08 01:43:31;;;;;;;55.40;36.22;;;;;;;24.26;55.91;102308.41;5078871;28;20360;-61
2022/03/08 01:45:57;;;;;;;58.92;38.13;;;;;;;24.26;56.92;102308.41;5078829;28;20029;-62
2022/03/08 01:48:22;;;;;;;54.90;38.10;;;;;;;24.32;56.16;102311.50;5080486;28;20024;-62
2022/03/08 01:50:47;;;;;;;56.72;37.53;;;;;;;24.34;56.29;102310.28;5080265;28;20459;-61
2022/03/08 01:53:13;;;;;;;57.00;36.67;;;;;;;24.34;55.69;102314.94;5079186;28;20071;-62
2022/03/08 01:55:39;;;;;;;63.28;39.40;;;;;;;24.35;56.01;102311.16;5079577;28;20045;-62
2022/03/08 01:58:04;;;;;;;53.40;35.30;;;;;;;24.36;55.64;102312.91;5079347;28;20591;-62
2022/03/08 02:00:30;;;;;;;53.38;35.80;;;;;;;24.39;55.43;102301.53;5078640;28;20051;-62
2022/03/08 02:02:57;;;;;;;58.63;37.40;;;;;;;24.37;55.88;102295.38;5080425;28;20055;-61
2022/03/08 02:05:23;;;;;;;56.15;36.40;;;;;;;24.37;55.90;102287.13;5080400;28;20039;-62
2022/03/08 02:07:48;;;;;;;57.80;38.25;;;;;;;24.37;55.94;102292.63;5079513;28;20120;-61
2022/03/08 02:10:14;;;;;;;56.45;35.85;;;;;;;24.40;55.37;102292.25;5079191;28;20020;-62
2022/03/08 02:12:39;;;;;;;55.35;36.22;;;;;;;24.41;55.27;102291.22;5079057;28;20059;-62
2022/03/08 02:15:33;;;;;;;55.80;37.67;;;;;;;24.43;55.52;102286.41;5079227;28;20069;-62
2022/03/08 02:18:00;;;;;;;56.47;37.15;;;;;;;24.41;55.17;102282.97;5078528;28;20602;-62
2022/03/08 02:20:27;;;;;;;54.58;35.80;;;;;;;24.44;55.16;102288.13;5080674;28;20379;-62
2022/03/08 02:22:52;;;;;;;57.17;38.58;;;;;;;24.44;54.76;102271.63;5079296;28;20046;-61
2022/03/08 02:25:20;;;;;;;54.72;36.95;;;;;;;24.43;54.91;102253.41;5079587;28;20467;-61
2022/03/08 02:27:50;;;;;;;54.03;35.97;;;;;;;24.49;55.66;102241.69;5079330;28;20024;-61
2022/03/08 02:30:17;;;;;;;54.80;35.72;;;;;;;24.47;54.82;102260.25;5080178;28;20107;-62
2022/03/08 02:32:43;;;;;;;52.35;35.70;;;;;;;24.48;54.65;102261.97;5075928;28;20040;-61
2022/03/08 02:35:15;;;;;;;53.38;35.63;;;;;;;24.49;55.25;102266.44;5081140;28;20403;-62
2022/03/08 02:37:45;;;;;;;53.45;35.70;;;;;;;24.50;54.79;102265.41;5084915;28;20470;-62
2022/03/08 02:40:16;;;;;;;55.85;35.95;;;;;;;24.51;55.21;102261.63;5074358;28;20440;-63
2022/03/08 02:42:42;;;;;;;57.38;37.13;;;;;;;24.51;55.49;102267.09;5084534;28;20391;-62
2022/03/08 02:45:09;;;;;;;57.15;36.58;;;;;;;24.50;55.54;102271.75;5084054;28;20016;-63
2022/03/08 02:47:34;;;;;;;53.83;35.53;;;;;;;24.50;54.66;102269.00;5076334;28;20042;-61
2022/03/08 02:50:00;;;;;;;58.40;37.50;;;;;;;24.53;54.56;102265.06;5076702;28;20032;-61
2022/03/08 02:52:25;;;;;;;54.53;36.25;;;;;;;24.52;55.21;102258.72;5076797;28;20332;-62
2022/03/08 02:54:50;;;;;;;57.75;37.03;;;;;;;24.54;54.65;102264.03;5079930;28;20374;-62
2022/03/08 02:57:16;;;;;;;51.55;34.97;;;;;;;24.54;54.71;102255.78;5080213;28;20621;-62
2022/03/08 02:59:41;;;;;;;55.38;36.13;;;;;;;24.50;54.16;102257.16;5080206;28;20876;-63
2022/03/08 03:02:06;;;;;;;54.85;36.30;;;;;;;24.56;54.69;102254.56;5075667;28;20032;-62
2022/03/08 03:04:32;;;;;;;54.83;35.97;;;;;;;24.53;54.46;102259.56;5078835;28;20028;-61
2022/03/08 03:06:58;;;;;;;54.15;35.97;;;;;;;24.56;54.45;102260.06;5078465;28;20028;-62
2022/03/08 03:09:23;;;;;;;53.75;36.72;;;;;;;24.57;54.57;102272.78;5078582;28;20035;-61
2022/03/08 03:11:49;;;;;;;50.55;34.55;;;;;;;24.53;54.86;102265.94;5077964;28;20016;-62
2022/03/08 03:14:14;;;;;;;53.45;36.72;;;;;;;24.54;54.51;102266.78;5078296;28;20059;-62
2022/03/08 03:16:39;;;;;;;53.25;35.40;;;;;;;24.57;54.63;102282.91;5081346;28;20036;-61
2022/03/08 03:19:05;;;;;;;54.88;36.17;;;;;;;24.57;54.77;102296.66;5080782;28;20481;-63
2022/03/08 03:21:30;;;;;;;50.65;35.05;;;;;;;24.54;54.26;102316.28;5077471;28;20508;-61
2022/03/08 03:23:55;;;;;;;57.90;37.17;;;;;;;24.59;54.78;102313.84;5074686;28;20028;-62
2022/03/08 03:26:21;;;;;;;56.05;35.55;;;;;;;24.60;54.06;102326.53;5083212;28;20179;-63
2022/03/08 03:28:46;;;;;;;54.25;35.53;;;;;;;24.58;54.94;102325.88;5083635;28;20024;-62
2022/03/08 03:31:12;;;;;;;53.47;35.40;;;;;;;24.62;54.66;102316.22;5080798;28;20020;-61
2022/03/08 03:33:37;;;;;;;53.55;34.85;;;;;;;24.59;54.31;102311.09;5087120;28;20046;-62
2022/03/08 03:36:03;;;;;;;54.78;35.97;;;;;;;24.63;54.11;102308.84;5084791;28;20114;-62
2022/03/08 03:38:28;;;;;;;54.78;35.78;;;;;;;24.59;54.34;102302.84;5076058;28;20029;-62
2022/03/08 03:40:53;;;;;;;55.95;37.38;;;;;;;24.57;54.63;102296.66;5083587;28;21573;-62
2022/03/08 03:43:18;;;;;;;55.03;35.63;;;;;;;24.60;53.89;102286.16;5082727;28;20380;-62
2022/03/08 03:45:44;;;;;;;56.53;37.20;;;;;;;24.61;54.39;102276.00;5080828;28;20475;-62
2022/03/08 03:48:09;;;;;;;55.17;34.92;;;;;;;24.64;54.30;102274.78;5078288;28;20027;-63
2022/03/08 03:50:34;;;;;;;51.13;35.63;;;;;;;24.64;54.20;102261.91;5078319;28;20471;-62
2022/03/08 03:53:00;;;;;;;50.92;34.78;;;;;;;24.63;54.08;102260.19;5082938;28;20036;-61
2022/03/08 03:55:25;;;;;;;55.28;36.53;;;;;;;24.61;54.56;102262.28;5079820;28;20039;-62
2022/03/08 03:57:51;;;;;;;53.40;34.65;;;;;;;24.65;54.69;102273.75;5088015;28;20031;-62
2022/03/08 04:00:16;;;;;;;53.63;35.42;;;;;;;24.63;54.43;102271.19;5083722;28;20036;-62
2022/03/08 04:02:43;;;;;;;54.25;35.28;;;;;;;24.63;54.29;102270.34;5080661;28;20029;-61
2022/03/08 04:05:09;;;;;;;55.85;36.20;;;;;;;24.65;54.16;102274.63;5085556;28;20483;-61
2022/03/08 04:07:35;;;;;;;50.47;34.35;;;;;;;24.66;54.59;102270.81;5083826;28;20046;-61
2022/03/08 04:10:02;;;;;;;54.03;35.35;;;;;;;24.63;53.94;102262.94;5076115;28;20115;-62
2022/03/08 04:12:28;;;;;;;52.92;33.95;;;;;;;24.62;54.05;102241.13;5078854;28;20519;-61
2022/03/08 04:14:54;;;;;;;56.33;35.38;;;;;;;24.62;54.03;102263.13;5083105;28;20064;-61
2022/03/08 04:17:19;;;;;;;54.03;34.63;;;;;;;24.64;53.97;102259.16;5082868;28;20057;-62
2022/03/08 04:19:44;;;;;;;54.13;34.78;;;;;;;24.66;53.28;102254.31;5083831;28;20028;-62
2022/03/08 04:22:09;;;;;;;52.47;35.47;;;;;;;24.64;53.93;102234.41;5083279;28;20065;-61
2022/03/08 04:24:35;;;;;;;50.10;34.90;;;;;;;24.68;53.96;102244.00;5085406;28;20501;-61
2022/03/08 04:27:00;;;;;;;54.58;34.33;;;;;;;24.67;53.58;102239.53;5080133;28;20035;-62
2022/03/08 04:29:26;;;;;;;53.50;35.72;;;;;;;24.67;53.96;102233.19;5075466;28;20467;-62
2022/03/08 04:31:51;;;;;;;49.03;34.28;;;;;;;24.65;53.65;102235.25;5080424;28;20055;-64
2022/03/08 04:34:16;;;;;;;55.60;36.45;;;;;;;24.66;53.55;102226.81;5085290;28;20032;-62
2022/03/08 04:36:42;;;;;;;53.25;34.17;;;;;;;24.68;53.47;102235.75;5087035;28;20713;-62
2022/03/08 04:39:07;;;;;;;53.03;34.70;;;;;;;24.68;53.47;102246.75;5083976;28;20028;-62
2022/03/08 04:41:32;;;;;;;52.28;35.50;;;;;;;24.67;53.86;102250.53;5082972;28;20062;-61
2022/03/08 04:43:58;;;;;;;53.85;34.88;;;;;;;24.68;53.52;102252.25;5083397;28;20110;-62
2022/03/08 04:46:24;;;;;;;53.40;33.95;;;;;;;24.69;54.07;102248.50;5077188;28;20053;-61
2022/03/08 04:48:49;;;;;;;56.50;36.67;;;;;;;24.67;53.55;102249.69;5079980;28;20779;-61
2022/03/08 04:51:14;;;;;;;55.97;36.25;;;;;;;24.68;53.26;102266.00;5083688;28;20415;-62
2022/03/08 04:53:40;;;;;;;54.40;36.60;;;;;;;24.70;53.39;102255.69;5077102;28;20040;-61
2022/03/08 04:56:05;;;;;;;60.70;38.05;;;;;;;24.68;53.46;102260.50;5077046;28;20402;-63
2022/03/08 04:58:30;;;;;;;56.83;35.13;;;;;;;24.66;52.76;102246.06;5082578;28;20040;-62
2022/03/08 05:00:56;;;;;;;56.72;35.83;;;;;;;24.69;53.28;102242.09;5082975;28;20020;-62
2022/03/08 05:03:21;;;;;;;58.05;38.45;;;;;;;24.88;52.47;102264.53;5080015;28;20040;-62
2022/03/08 05:05:46;;;;;;;58.00;36.45;;;;;;;24.98;52.66;102258.78;5083601;28;20028;-62
2022/03/08 05:08:11;;;;;;;54.40;36.28;;;;;;;25.08;52.39;102259.47;5086210;28;20455;-62
2022/03/08 05:10:37;;;;;;;54.47;35.47;;;;;;;25.14;52.13;102261.47;5084304;28;20029;-62
2022/03/08 05:13:03;;;;;;;58.13;38.20;;;;;;;25.19;51.78;102266.41;5079602;28;20482;-62
2022/03/08 05:15:29;;;;;;;62.13;37.33;;;;;;;25.24;51.99;102258.50;5079310;28;20153;-62
2022/03/08 05:17:54;;;;;;;56.15;36.80;;;;;;;25.29;52.64;102255.19;5079294;28;20031;-61
2022/03/08 05:20:20;;;;;;;57.92;36.83;;;;;;;25.28;51.80;102259.81;5080573;28;20386;-61
2022/03/08 05:22:45;;;;;;;54.17;35.63;;;;;;;25.29;51.93;102250.53;5080518;28;20107;-61
2022/03/08 05:25:11;;;;;;;57.22;36.40;;;;;;;25.35;52.18;102249.78;5076533;28;20120;-62
2022/03/08 05:27:37;;;;;;;59.63;37.08;;;;;;;25.38;51.77;102234.81;5073775;28;20032;-61
2022/03/08 05:30:04;;;;;;;56.15;36.88;;;;;;;25.37;51.91;102227.59;5083934;28;20035;-62
2022/03/08 05:32:29;;;;;;;56.30;38.50;;;;;;;25.40;51.77;102228.06;5081055;28;20035;-61
2022/03/08 05:34:54;;;;;;;55.72;37.15;;;;;;;25.40;52.16;102219.81;5079343;28;20036;-61
2022/03/08 05:37:20;;;;;;;54.17;35.53;;;;;;;25.43;51.39;102216.69;5081627;28;20060;-62
2022/03/08 05:39:45;;;;;;;53.55;34.45;;;;;;;25.47;51.46;102219.91;5084318;28;20028;-62
2022/03/08 05:42:11;;;;;;;54.67;36.28;;;;;;;25.43;52.03;102211.19;5080648;28;20028;-62
2022/03/08 05:44:36;;;;;;;54.85;36.42;;;;;;;25.48;51.56;102219.72;5086530;28;20024;-62
2022/03/08 05:47:02;;;;;;;55.80;36.17;;;;;;;25.54;51.40;102220.06;5079107;28;20108;-62
2022/03/08 05:49:27;;;;;;;55.78;35.40;;;;;;;25.54;51.96;102220.91;5082422;28;20036;-62
2022/03/08 05:51:53;;;;;;;55.50;34.63;;;;;;;25.56;51.50;102228.97;5074738;28;20025;-62
2022/03/08 05:54:19;;;;;;;54.28;35.85;;;;;;;25.58;51.31;102226.88;5073502;28;20020;-61
2022/03/08 05:56:44;;;;;;;51.53;34.42;;;;;;;25.58;51.40;102237.91;5073429;28;20086;-61
2022/03/08 05:59:10;;;;;;;53.25;35.03;;;;;;;25.59;51.35;102234.97;5083404;28;20036;-62
2022/03/08 06:01:35;;;;;;;55.35;34.00;;;;;;;25.62;51.43;102230.97;5075361;28;20341;-61
2022/03/08 06:04:00;;;;;;;54.40;34.47;;;;;;;25.61;51.18;102219.09;5079065;28;20046;-61
2022/03/08 06:06:25;;;;;;;50.83;33.78;;;;;;;25.63;51.57;102219.78;5080925;28;20020;-62
2022/03/08 06:08:51;;;;;;;53.53;34.67;;;;;;;25.66;51.00;102213.03;5082249;28;20024;-62
2022/03/08 06:11:16;;;;;;;52.88;33.80;;;;;;;25.67;51.03;102218.34;5080577;28;20201;-62
2022/03/08 06:13:42;;;;;;;62.53;38.42;;;;;;;25.41;48.62;102229.78;5080351;28;20066;-62
2022/03/08 06:16:07;;;;;;;64.50;40.22;;;;;;;25.38;49.40;102221.06;5081767;28;20036;-61
2022/03/08 06:18:32;;;;;;;74.15;43.70;;;;;;;25.33;48.42;102227.09;5080034;28;20463;-62
2022/03/08 06:20:57;;;;;;;71.78;44.60;;;;;;;25.39;47.54;102220.88;5079712;28;20031;-61
2022/03/08 06:23:23;;;;;;;71.32;45.55;;;;;;;25.39;47.57;102220.88;5079560;28;20028;-62
2022/03/08 06:25:48;;;;;;;73.68;46.20;;;;;;;25.47;47.53;102226.28;5079026;28;20502;-62
2022/03/08 06:28:13;;;;;;;72.95;45.97;;;;;;;25.38;47.15;102213.66;5078898;28;20036;-62
2022/03/08 06:30:39;;;;;;;74.53;46.92;;;;;;;25.43;45.82;102213.94;5074580;28;20029;-62
2022/03/08 06:33:04;;;;;;;79.15;50.10;;;;;;;25.35;46.36;102213.13;5080848;28;20032;-62
2022/03/08 06:35:30;;;;;;;76.57;47.63;;;;;;;25.43;46.49;102213.09;5080534;28;20070;-62
2022/03/08 06:37:55;;;;;;;83.68;49.67;;;;;;;25.36;46.03;102212.97;5082655;28;20016;-63
2022/03/08 06:40:20;;;;;;;71.53;45.67;;;;;;;25.40;45.62;102219.81;5083009;28;20383;-62
2022/03/08 06:42:45;;;;;;;73.63;45.65;;;;;;;25.52;45.57;102233.13;5080513;28;20310;-62
2022/03/08 06:45:11;;;;;;;76.05;46.83;;;;;;;25.45;45.55;102228.38;5076192;28;20029;-63
2022/03/08 06:47:38;;;;;;;76.70;47.10;;;;;;;25.37;45.63;102230.34;5076332;28;20028;-63
2022/03/08 06:50:04;;;;;;;74.88;47.15;;;;;;;25.45;46.07;102233.03;5078154;28;20390;-63
2022/03/08 06:52:29;;;;;;;76.53;46.35;;;;;;;25.48;46.08;102221.63;5075666;28;20446;-62
2022/03/08 06:54:55;;;;;;;75.75;46.10;;;;;;;25.42;45.32;102220.50;5078504;28;20127;-62
2022/03/08 06:57:20;;;;;;;71.68;45.85;;;;;;;25.47;45.91;102226.28;5083000;28;20051;-62
2022/03/08 06:59:45;;;;;;;78.35;47.40;;;;;;;25.44;45.46;102221.16;5083924;28;20028;-62
2022/03/08 07:02:10;;;;;;;72.65;45.42;;;;;;;25.45;45.02;102231.13;5086033;28;20032;-62
2022/03/08 07:04:36;;;;;;;70.60;45.65;;;;;;;25.40;45.58;102225.31;5087835;28;20031;-62
2022/03/08 07:07:01;;;;;;;76.07;46.40;;;;;;;25.42;45.63;102239.75;5084319;28;20031;-62
2022/03/08 07:09:27;;;;;;;73.85;45.83;;;;;;;25.48;45.77;102246.41;5085243;28;20043;-61
2022/03/08 07:11:52;;;;;;;73.03;45.33;;;;;;;25.49;45.64;102245.38;5083274;28;20016;-62
2022/03/08 07:14:18;;;;;;;73.10;43.72;;;;;;;25.53;45.39;102234.84;5084656;28;20113;-61
2022/03/08 07:16:45;;;;;;;72.03;45.47;;;;;;;25.49;44.79;102245.38;5086878;28;20350;-62
2022/03/08 07:19:11;;;;;;;70.78;43.60;;;;;;;25.39;44.85;102234.63;5080392;28;20123;-62
2022/03/08 07:21:36;;;;;;;74.25;44.20;;;;;;;25.41;45.26;102239.94;5077635;28;20493;-62
2022/03/08 07:24:02;;;;;;;66.30;41.45;;;;;;;25.57;44.51;102249.97;5082132;28;20036;-62
2022/03/08 07:26:27;;;;;;;73.82;45.05;;;;;;;25.56;44.72;102245.50;5081755;28;20028;-62
2022/03/08 07:28:52;;;;;;;71.30;45.00;;;;;;;25.48;44.31;102250.03;5081912;28;20063;-62
2022/03/08 07:31:18;;;;;;;69.32;43.67;;;;;;;25.49;44.44;102257.25;5086736;28;20047;-62
2022/03/08 07:33:43;;;;;;;65.78;41.75;;;;;;;25.50;45.71;102252.59;5081548;28;20032;-62
2022/03/08 07:36:09;;;;;;;64.90;40.75;;;;;;;25.57;44.81;102259.06;5086384;28;20959;-63
2022/03/08 07:38:34;;;;;;;63.65;40.78;;;;;;;25.57;44.73;102263.72;5083781;28;20032;-62
2022/03/08 07:41:00;;;;;;;66.45;40.22;;;;;;;25.53;44.19;102265.13;5078044;28;20043;-62
2022/03/08 07:43:25;;;;;;;68.93;42.10;;;;;;;25.60;44.97;102268.88;5083119;28;20522;-61
2022/03/08 07:45:51;;;;;;;66.90;40.03;;;;;;;25.54;44.51;102264.97;5083224;28;20025;-62
2022/03/08 07:48:17;;;;;;;63.50;40.78;;;;;;;25.57;44.62;102269.25;5095982;22;20494;-62
2022/03/08 07:50:42;;;;;;;64.13;39.40;;;;;;;25.59;44.86;102267.16;5063719;28;20082;-62
2022/03/08 07:53:08;;;;;;;61.83;40.03;;;;;;;25.61;45.31;102262.31;5054532;28;20048;-61
2022/03/08 07:55:34;;;;;;;62.38;39.58;;;;;;;25.59;45.42;102261.66;5054586;28;20025;-62
2022/03/08 07:58:01;;;;;;;62.70;39.25;;;;;;;25.60;44.81;102257.84;5054514;28;20098;-61
2022/03/08 08:00:27;;;;;;;63.30;38.85;;;;;;;25.58;44.44;102265.44;5054424;28;20025;-61
2022/03/08 08:02:52;;;;;;;61.55;39.28;;;;;;;25.61;44.85;102256.81;5054600;28;20475;-62
2022/03/08 08:05:19;;;;;;;59.13;38.63;;;;;;;25.65;44.42;102263.66;5054319;28;20021;-62
2022/03/08 08:07:45;;;;;;;63.65;38.17;;;;;;;25.57;45.09;102263.72;5052923;28;20029;-63
2022/03/08 08:10:10;;;;;;;61.70;38.15;;;;;;;25.52;45.19;102266.16;5054184;28;20031;-62
2022/03/08 08:12:36;;;;;;;61.15;38.90;;;;;;;25.54;44.48;102259.47;5053659;28;20402;-61
2022/03/08 08:15:01;;;;;;;62.03;38.47;;;;;;;25.52;44.62;102249.63;5054628;28;20506;-62
2022/03/08 08:17:26;;;;;;;65.28;39.88;;;;;;;25.59;44.76;102261.66;5057763;28;20051;-62
2022/03/08 08:19:52;;;;;;;65.00;38.08;;;;;;;25.60;44.07;102252.34;5074113;28;20025;-62
2022/03/08 08:22:17;;;;;;;64.35;40.00;;;;;;;25.53;44.11;102245.84;5073933;28;20021;-62
2022/03/08 08:24:42;;;;;;;66.38;40.00;;;;;;;25.55;45.05;102243.78;5074184;28;20028;-62
2022/03/08 08:27:07;;;;;;;64.13;40.20;;;;;;;25.58;44.75;102246.16;5073790;28;20034;-63
2022/03/08 08:29:33;;;;;;;67.63;39.90;;;;;;;25.55;44.14;102243.78;5074012;28;20020;-62
2022/03/08 08:31:58;;;;;;;66.10;40.33;;;;;;;25.56;43.93;102245.50;5073791;28;20027;-62
2022/03/08 08:34:23;;;;;;;70.15;42.20;;;;;;;25.52;44.29;102241.38;5073832;28;20066;-62
2022/03/08 08:36:49;;;;;;;73.20;42.17;;;;;;;24.96;45.36;102235.25;5073928;28;20029;-62
2022/03/08 08:39:15;;;;;;;78.00;45.22;;;;;;;24.53;45.97;102237.56;5073649;28;20379;-62
2022/03/08 08:41:44;;;;;;;81.05;48.15;;;;;;;24.46;45.19;102228.31;5073751;28;20043;-62
2022/03/08 08:44:10;;;;;;;90.40;48.92;;;;;;;24.27;45.09;102233.16;5073874;28;20034;-62
2022/03/08 08:46:35;;;;;;;79.20;48.42;;;;;;;24.22;45.58;102240.25;5073579;28;20459;-62
2022/03/08 08:49:01;;;;;;;86.65;50.47;;;;;;;24.12;43.52;102251.41;5073177;28;20055;-62
2022/03/08 08:51:26;;;;;;;88.68;50.20;;;;;;;23.98;42.53;102250.25;5073158;28;20103;-62
2022/03/08 08:53:52;;;;;;;84.07;48.50;;;;;;;23.96;41.92;102248.72;5073420;28;20074;-62
2022/03/08 08:56:17;;;;;;;88.50;51.25;;;;;;;23.94;42.25;102242.53;5071921;28;20609;-61
2022/03/08 08:58:43;;;;;;;87.10;47.55;;;;;;;23.93;41.89;102246.31;5073454;28;20026;-61
2022/03/08 09:01:08;;;;;;;84.50;46.63;;;;;;;23.97;41.66;102247.69;5073380;28;20103;-61
2022/03/08 09:03:33;;;;;;;87.55;47.65;;;;;;;23.96;40.46;102246.81;5073186;28;20028;-61
2022/03/08 09:05:59;;;;;;;75.20;45.13;;;;;;;23.99;40.67;102245.59;5072927;28;20035;-62
2022/03/08 09:08:24;;;;;;;78.82;45.15;;;;;;;23.88;40.85;102248.75;5072931;28;20028;-62
2022/03/08 09:10:54;;;;;;;86.22;44.60;;;;;;;23.90;40.21;102255.78;5073196;28;20099;-62
2022/03/08 09:13:20;;;;;;;79.03;43.00;;;;;;;23.85;40.83;102254.56;5072918;28;20040;-62
2022/03/08 09:15:46;;;;;;;74.88;41.92;;;;;;;23.83;40.65;102253.88;5073053;28;20467;-62
2022/03/08 09:18:11;;;;;;;77.68;42.25;;;;;;;23.89;40.50;102250.47;5072698;28;20032;-62
2022/03/08 09:20:38;;;;;;;73.07;41.05;;;;;;;23.97;40.71;102247.69;5072952;28;20025;-61
2022/03/08 09:23:04;;;;;;;73.28;41.13;;;;;;;23.99;41.44;102251.09;5072996;28;20017;-62
2022/03/08 09:25:30;;;;;;;67.70;38.97;;;;;;;24.01;41.55;102249.03;5071877;28;20382;-61
2022/03/08 09:27:55;;;;;;;65.72;37.50;;;;;;;24.07;41.43;102245.59;5072831;28;20112;-62
2022/03/08 09:30:20;;;;;;;65.05;36.22;;;;;;;24.07;41.24;102253.84;5071513;28;20020;-63
2022/03/08 09:32:46;;;;;;;63.45;35.45;;;;;;;24.09;41.88;102251.78;5072886;28;20021;-62
2022/03/08 09:35:11;;;;;;;67.10;35.17;;;;;;;24.08;41.47;102255.56;5072696;28;20024;-63
2022/03/08 09:37:36;;;;;;;60.78;33.67;;;;;;;24.10;42.62;102255.38;5072759;28;20421;-62
2022/03/08 09:40:04;;;;;;;57.80;32.28;;;;;;;23.99;42.06;102251.97;5072630;28;20037;-62
2022/03/08 09:42:30;;;;;;;57.65;31.92;;;;;;;24.03;41.84;102258.00;5072446;28;20075;-61
2022/03/08 09:44:56;;;;;;;55.70;29.55;;;;;;;23.99;42.12;102256.59;5072766;28;20048;-61
2022/03/08 09:47:22;;;;;;;60.33;30.83;;;;;;;24.08;41.64;102235.47;5069648;28;20116;-62
2022/03/08 09:49:48;;;;;;;53.70;30.00;;;;;;;23.99;42.60;102231.88;5052372;28;20075;-61
2022/03/08 09:52:14;;;;;;;49.45;27.77;;;;;;;24.00;41.82;102233.59;5052320;28;20017;-62
2022/03/08 09:54:42;;;;;;;51.80;30.05;;;;;;;24.00;42.02;102241.81;5052641;28;20070;-61
2022/03/08 09:57:12;;;;;;;50.30;28.52;;;;;;;24.03;42.03;102235.16;5051171;28;20109;-62
2022/03/08 09:59:38;;;;;;;49.20;26.25;;;;;;;23.98;42.23;102238.41;5052461;28;20031;-61
2022/03/08 10:02:04;;;;;;;49.50;27.55;;;;;;;23.97;42.21;102243.03;5052249;28;20083;-61
2022/03/08 10:04:29;;;;;;;50.28;26.67;;;;;;;23.97;41.93;102236.69;5052265;28;20028;-61
2022/03/08 10:06:56;;;;;;;43.28;25.73;;;;;;;23.99;41.28;102242.84;5052505;28;20033;-62
2022/03/08 10:09:23;;;;;;;44.13;24.38;;;;;;;23.98;41.92;102238.41;5052063;28;20035;-62
2022/03/08 10:11:54;;;;;;;44.72;24.27;;;;;;;23.95;42.28;102239.63;5052211;28;20017;-62
2022/03/08 10:14:39;;;;;;;43.85;23.38;;;;;;;23.95;42.17;102233.25;5052058;28;20029;-62
2022/03/08 10:17:06;;;;;;;41.50;23.10;;;;;;;23.91;42.00;102241.00;5052445;28;20614;-62
2022/03/08 10:19:43;;;;;;;40.88;21.52;;;;;;;23.91;42.08;102240.16;5051781;28;20033;-61
2022/03/08 10:22:23;;;;;;;45.13;23.42;;;;;;;23.97;41.04;102250.41;5052032;28;20036;-62
2022/03/08 10:24:49;;;;;;;44.30;24.38;;;;;;;23.96;42.39;102251.47;5052333;28;20025;-62
2022/03/08 10:27:16;;;;;;;38.28;21.85;;;;;;;23.87;42.06;102253.38;5052015;28;20550;-62
2022/03/08 10:29:42;;;;;;;43.85;22.35;;;;;;;23.85;42.19;102247.22;5052085;28;20021;-62
2022/03/08 10:32:10;;;;;;;44.67;22.67;;;;;;;23.89;42.21;102242.22;5051884;28;20039;-62
2022/03/08 10:34:37;;;;;;;37.60;20.05;;;;;;;23.88;41.80;102243.25;5052394;28;20319;-62
2022/03/08 10:37:09;;;;;;;34.55;19.20;;;;;;;23.89;42.03;102242.22;5054554;28;20021;-62
2022/03/08 10:39:46;;;;;;;37.45;18.58;;;;;;;23.83;41.97;102246.50;5056466;28;20112;-62
2022/03/08 10:42:18;;;;;;;40.13;19.42;;;;;;;23.85;41.76;102249.06;5055934;28;20107;-61
2022/03/08 10:44:44;;;;;;;37.90;18.60;;;;;;;23.83;41.54;102245.63;5056138;28;20032;-62
2022/03/08 10:47:14;;;;;;;36.10;18.02;;;;;;;23.83;41.97;102253.88;5055597;28;20227;-61
2022/03/08 10:49:53;;;;;;;32.45;18.55;;;;;;;23.82;41.43;102243.94;5055789;28;20025;-61
2022/03/08 10:52:27;;;;;;;33.78;17.92;;;;;;;23.85;41.34;102254.56;5055717;28;20021;-62
2022/03/08 10:54:52;;;;;;;31.95;16.75;;;;;;;23.81;41.13;102253.19;5054719;28;20093;-62
2022/03/08 10:57:18;;;;;;;34.75;17.88;;;;;;;23.78;41.81;102253.56;5055902;28;20483;-62
2022/03/08 10:59:56;;;;;;;30.30;15.27;;;;;;;23.79;41.13;102249.78;5055599;28;20605;-62
2022/03/08 11:02:23;;;;;;;35.15;17.80;;;;;;;23.80;41.38;102251.47;5055367;28;20032;-62
2022/03/08 11:05:06;;;;;;;32.95;17.33;;;;;;;23.79;41.93;102249.78;5056029;28;20367;-63